createdAt,value
2022-11-17T00:00:44.020Z,32.80
2022-11-17T00:03:16.042Z,31.83
2022-11-17T00:05:44.564Z,29.48
2022-11-17T00:08:12.947Z,36.33
2022-11-17T00:10:41.303Z,32.85
2022-11-17T00:13:28.609Z,26.77
2022-11-17T00:15:58.374Z,35.60
2022-11-17T00:18:43.848Z,29.90
2022-11-17T00:21:23.989Z,23.73
2022-11-17T00:23:52.543Z,25.38
2022-11-17T00:26:22.246Z,23.60
2022-11-17T00:28:53.787Z,23.55
2022-11-17T00:34:12.551Z,19.35
2022-11-17T00:36:43.900Z,20.42
2022-11-17T00:41:41.330Z,16.70
2022-11-17T00:44:09.748Z,20.13
2022-11-17T00:46:39.925Z,19.70
2022-11-17T00:49:09.393Z,15.55
2022-11-17T00:51:38.588Z,19.73
2022-11-17T00:54:08.724Z,18.85
2022-11-17T00:56:37.181Z,14.77
2022-11-17T00:59:05.797Z,19.25
2022-11-17T01:01:34.117Z,18.92
2022-11-17T01:04:04.750Z,20.48
2022-11-17T01:06:35.049Z,24.27
2022-11-17T01:09:05.309Z,16.05
2022-11-17T01:11:33.463Z,17.60
2022-11-17T01:14:02.945Z,19.42
2022-11-17T01:16:32.692Z,13.90
2022-11-17T01:19:02.227Z,22.52
2022-11-17T01:21:32.904Z,15.32
2022-11-17T01:24:02.723Z,17.00
2022-11-17T01:26:32.803Z,13.88
2022-11-17T01:29:01.487Z,18.23
2022-11-17T01:31:31.909Z,15.52
2022-11-17T01:34:00.247Z,15.00
2022-11-17T01:36:30.551Z,15.25
2022-11-17T01:39:00.175Z,15.88
2022-11-17T01:41:29.972Z,17.02
2022-11-17T01:43:59.761Z,17.33
2022-11-17T01:46:33.760Z,19.40
2022-11-17T01:49:06.563Z,14.70
2022-11-17T01:51:39.701Z,18.55
2022-11-17T01:54:12.564Z,18.75
2022-11-17T01:56:45.232Z,16.27
2022-11-17T01:59:22.250Z,18.73
2022-11-17T02:01:56.782Z,14.88
2022-11-17T02:04:27.478Z,15.38
2022-11-17T02:07:01.987Z,18.53
2022-11-17T02:09:32.962Z,17.02
2022-11-17T02:12:01.218Z,18.63
2022-11-17T02:14:30.007Z,18.20
2022-11-17T02:17:03.034Z,16.77
2022-11-17T02:19:40.391Z,17.70
2022-11-17T02:22:34.953Z,20.88
2022-11-17T02:25:31.050Z,17.40
2022-11-17T02:28:06.582Z,20.73
2022-11-17T02:30:42.737Z,18.27
2022-11-17T02:33:22.199Z,18.77
2022-11-17T02:35:57.197Z,19.45
2022-11-17T02:38:36.642Z,17.02
2022-11-17T02:41:12.479Z,19.77
2022-11-17T02:44:04.070Z,22.73
2022-11-17T02:46:39.016Z,18.75
2022-11-17T02:49:11.433Z,20.45
2022-11-17T02:51:42.209Z,23.65
2022-11-17T02:54:11.368Z,19.38
2022-11-17T02:56:42.961Z,21.35
2022-11-17T03:02:19.923Z,26.15
2022-11-17T03:05:00.715Z,25.08
2022-11-17T03:07:52.491Z,21.10
2022-11-17T03:12:56.782Z,22.98
2022-11-17T03:15:35.137Z,25.85
2022-11-17T03:18:10.622Z,24.75
2022-11-17T03:20:49.041Z,30.88
2022-11-17T03:23:20.960Z,25.23
2022-11-17T03:25:54.978Z,23.48
2022-11-17T03:28:28.417Z,26.27
2022-11-17T03:31:00.706Z,25.45
2022-11-17T03:33:30.325Z,21.48
2022-11-17T03:36:03.031Z,27.17
2022-11-17T03:38:36.687Z,25.88
2022-11-17T03:41:09.614Z,24.08
2022-11-17T03:43:39.928Z,26.63
2022-11-17T03:46:13.314Z,24.92
2022-11-17T03:48:49.791Z,27.10
2022-11-17T03:51:20.263Z,25.88
2022-11-17T03:53:49.133Z,28.17
2022-11-17T03:56:36.426Z,28.70
2022-11-17T03:59:12.109Z,28.40
2022-11-17T04:01:41.895Z,34.75
2022-11-17T04:04:15.507Z,31.13
2022-11-17T04:06:43.722Z,29.75
2022-11-17T04:09:12.247Z,33.13
2022-11-17T04:12:05.924Z,26.23
2022-11-17T04:14:51.534Z,31.20
2022-11-17T04:17:21.292Z,28.33
2022-11-17T04:19:49.426Z,31.30
2022-11-17T04:22:17.610Z,27.02
2022-11-17T04:24:45.872Z,28.90
2022-11-17T04:27:30.628Z,22.92
2022-11-17T04:29:58.652Z,21.20
2022-11-17T04:32:28.260Z,22.63
2022-11-17T04:34:58.062Z,25.00
2022-11-17T04:37:26.427Z,31.77
2022-11-17T04:39:54.716Z,25.48
2022-11-17T04:42:21.793Z,25.92
2022-11-17T04:44:49.977Z,25.50
2022-11-17T04:47:18.149Z,24.02
2022-11-17T04:49:47.865Z,51.58
2022-11-17T04:52:15.983Z,29.10
2022-11-17T04:54:44.138Z,37.75
2022-11-17T04:57:12.415Z,30.48
2022-11-17T04:59:40.693Z,27.52
2022-11-17T05:02:08.990Z,29.45
2022-11-17T05:04:54.418Z,27.30
2022-11-17T05:07:24.477Z,28.02
2022-11-17T05:09:52.534Z,25.15
2022-11-17T05:12:38.056Z,24.88
2022-11-17T05:15:07.234Z,28.63
2022-11-17T05:17:34.344Z,27.45
2022-11-17T05:20:02.629Z,28.17
2022-11-17T05:22:49.792Z,27.30
2022-11-17T05:25:18.127Z,24.27
2022-11-17T05:27:46.320Z,27.10
2022-11-17T05:30:14.911Z,27.98
2022-11-17T05:32:43.118Z,25.38
2022-11-17T05:35:11.431Z,28.80
2022-11-17T05:37:40.915Z,26.90
2022-11-17T05:40:10.455Z,26.98
2022-11-17T05:42:38.627Z,33.17
2022-11-17T05:45:07.951Z,28.23
2022-11-17T05:47:36.184Z,33.58
2022-11-17T05:50:04.379Z,37.15
2022-11-17T05:52:32.560Z,31.17
2022-11-17T05:55:02.161Z,29.08
2022-11-17T05:57:33.455Z,33.00
2022-11-17T06:00:05.160Z,32.20
2022-11-17T06:02:38.943Z,31.30
2022-11-17T06:05:07.615Z,31.75
2022-11-17T06:07:36.863Z,25.95
2022-11-17T06:10:07.759Z,32.75
2022-11-17T06:12:36.179Z,40.50
2022-11-17T06:15:04.717Z,37.55
2022-11-17T06:17:37.251Z,33.40
2022-11-17T06:20:11.228Z,36.53
2022-11-17T06:22:41.855Z,28.92
2022-11-17T06:25:15.469Z,30.83
2022-11-17T06:27:44.084Z,31.60
2022-11-17T06:30:12.861Z,46.45
2022-11-17T06:32:45.267Z,34.13
2022-11-17T06:35:16.578Z,27.88
2022-11-17T06:37:44.895Z,32.33
2022-11-17T06:40:14.628Z,30.52
2022-11-17T06:43:00.323Z,29.02
2022-11-17T06:45:28.656Z,30.77
2022-11-17T06:47:57.045Z,34.88
2022-11-17T06:50:25.292Z,41.25
2022-11-17T06:52:53.497Z,30.05
2022-11-17T06:55:23.194Z,25.45
2022-11-17T06:57:53.551Z,29.50
2022-11-17T07:00:22.560Z,26.33
2022-11-17T07:02:50.874Z,42.38
2022-11-17T07:05:19.066Z,34.13
2022-11-17T07:07:47.281Z,30.27
2022-11-17T07:10:15.588Z,27.23
2022-11-17T07:12:47.060Z,26.77
2022-11-17T07:17:43.347Z,25.73
2022-11-17T07:20:12.551Z,25.52
2022-11-17T07:22:41.573Z,26.80
2022-11-17T07:25:10.352Z,22.27
2022-11-17T07:27:38.978Z,28.77
2022-11-17T07:30:10.331Z,27.65
2022-11-17T07:32:38.572Z,24.08
2022-11-17T07:35:07.807Z,27.02
2022-11-17T07:37:35.986Z,27.88
2022-11-17T07:40:04.238Z,26.20
2022-11-17T07:42:32.821Z,27.05
2022-11-17T07:45:01.106Z,23.98
2022-11-17T07:47:30.638Z,24.50
2022-11-17T07:49:58.862Z,27.30
2022-11-17T07:52:27.025Z,26.60
2022-11-17T07:54:55.274Z,23.08
2022-11-17T07:57:25.226Z,26.27
2022-11-17T07:59:53.393Z,23.35
2022-11-17T08:02:21.662Z,23.38
2022-11-17T08:04:51.389Z,23.02
2022-11-17T08:07:19.856Z,28.05
2022-11-17T08:09:48.078Z,15.00
2022-11-17T08:12:16.278Z,24.70
2022-11-17T08:14:44.520Z,19.55
2022-11-17T08:17:12.743Z,21.92
2022-11-17T08:19:40.950Z,20.65
2022-11-17T08:22:10.714Z,24.77
2022-11-17T08:24:38.963Z,21.40
2022-11-17T08:27:07.370Z,15.15
2022-11-17T08:29:35.599Z,20.75
2022-11-17T08:32:03.825Z,19.05
2022-11-17T08:34:32.022Z,22.63
2022-11-17T08:37:00.195Z,17.63
2022-11-17T08:39:30.005Z,18.75
2022-11-17T08:41:58.189Z,18.48
2022-11-17T08:44:26.440Z,16.08
2022-11-17T08:46:54.622Z,19.00
2022-11-17T08:49:22.972Z,14.38
2022-11-17T08:51:51.270Z,14.15
2022-11-17T08:54:19.453Z,20.52
2022-11-17T08:56:49.204Z,20.50
2022-11-17T08:59:17.398Z,16.30
2022-11-17T09:01:45.675Z,15.25
2022-11-17T09:04:13.894Z,16.40
2022-11-17T09:06:42.093Z,15.20
2022-11-17T09:09:10.344Z,15.95
2022-11-17T09:11:38.573Z,13.70
2022-11-17T09:14:09.358Z,12.93
2022-11-17T09:16:38.080Z,19.15
2022-11-17T09:19:06.950Z,13.43
2022-11-17T09:21:35.196Z,15.63
2022-11-17T09:24:03.387Z,27.15
2022-11-17T09:26:31.698Z,16.98
2022-11-17T09:29:03.166Z,14.50
2022-11-17T09:34:05.280Z,17.48
2022-11-17T09:36:34.772Z,15.30
2022-11-17T09:39:02.973Z,19.48
2022-11-17T09:41:36.525Z,14.40
2022-11-17T09:44:14.127Z,14.02
2022-11-17T09:47:06.824Z,16.23
2022-11-17T09:49:43.949Z,15.63
2022-11-17T09:52:19.877Z,16.88
2022-11-17T09:54:54.035Z,15.00
2022-11-17T09:57:28.560Z,13.57
2022-11-17T10:00:13.857Z,15.65
2022-11-17T10:02:44.471Z,20.55
2022-11-17T10:05:17.559Z,16.40
2022-11-17T10:07:50.546Z,17.52
2022-11-17T10:10:23.783Z,13.75
2022-11-17T10:12:58.015Z,16.30
2022-11-17T10:15:30.872Z,15.18
2022-11-17T10:18:00.561Z,17.30
2022-11-17T10:20:28.841Z,13.23
2022-11-17T10:22:58.544Z,15.45
2022-11-17T10:25:38.834Z,17.30
2022-11-17T10:28:23.743Z,15.73
2022-11-17T10:30:55.577Z,17.08
2022-11-17T10:33:47.702Z,17.35
2022-11-17T10:36:20.550Z,16.15
2022-11-17T10:38:50.961Z,14.10
2022-11-17T10:41:21.514Z,15.55
2022-11-17T10:43:59.031Z,15.17
2022-11-17T10:46:29.961Z,13.52
2022-11-17T10:49:05.689Z,11.60
2022-11-17T10:51:35.806Z,17.55
2022-11-17T10:54:06.691Z,34.15
2022-11-17T10:56:41.814Z,17.80
2022-11-17T10:59:16.303Z,16.08
2022-11-17T11:01:46.288Z,14.73
2022-11-17T11:04:42.780Z,13.48
2022-11-17T11:07:13.604Z,12.80
2022-11-17T11:09:46.676Z,13.70
2022-11-17T11:12:20.447Z,12.90
2022-11-17T11:14:53.289Z,14.13
2022-11-17T11:17:21.568Z,15.75
2022-11-17T11:19:53.541Z,12.10
2022-11-17T11:22:32.001Z,14.50
2022-11-17T11:25:10.385Z,11.32
2022-11-17T11:28:03.407Z,14.93
2022-11-17T11:30:38.755Z,16.17
2022-11-17T11:33:25.109Z,10.48
2022-11-17T11:36:15.349Z,14.07
2022-11-17T11:39:05.398Z,19.88
2022-11-17T11:41:47.902Z,11.38
2022-11-17T11:44:39.149Z,10.23
2022-11-17T11:47:18.448Z,14.60
2022-11-17T11:49:52.839Z,11.50
2022-11-17T11:52:25.952Z,15.15
2022-11-17T11:54:58.326Z,15.38
2022-11-17T11:57:32.587Z,13.57
2022-11-17T12:00:04.718Z,13.68
2022-11-17T12:02:42.836Z,14.73
2022-11-17T12:05:20.921Z,10.45
2022-11-17T12:07:56.828Z,12.05
2022-11-17T12:10:33.068Z,18.73
2022-11-17T12:13:01.840Z,13.27
2022-11-17T12:15:35.993Z,16.42
2022-11-17T12:18:07.430Z,16.90
2022-11-17T12:23:41.044Z,15.13
2022-11-17T12:26:09.561Z,12.10
2022-11-17T12:28:39.997Z,10.77
2022-11-17T12:31:10.892Z,14.48
2022-11-17T12:34:22.716Z,15.82
2022-11-17T12:37:23.134Z,13.38
2022-11-17T12:40:44.660Z,17.70
2022-11-17T12:43:24.005Z,10.68
2022-11-17T12:46:05.769Z,11.52
2022-11-17T12:51:11.760Z,12.57
2022-11-17T12:53:55.034Z,12.40
2022-11-17T12:56:40.970Z,18.75
2022-11-17T12:59:46.287Z,11.77
2022-11-17T13:02:39.698Z,12.77
2022-11-17T13:05:14.708Z,18.35
2022-11-17T13:07:43.176Z,19.80
2022-11-17T13:10:25.604Z,15.23
2022-11-17T13:13:13.410Z,15.18
2022-11-17T13:15:43.935Z,20.55
2022-11-17T13:18:18.963Z,17.85
2022-11-17T13:20:49.401Z,19.10
2022-11-17T13:23:22.229Z,19.13
2022-11-17T13:25:50.727Z,16.65
2022-11-17T13:28:31.578Z,23.40
2022-11-17T13:31:01.214Z,21.80
2022-11-17T13:33:33.329Z,17.63
2022-11-17T13:36:16.791Z,20.00
2022-11-17T13:38:50.144Z,20.13
2022-11-17T13:41:19.167Z,20.05
2022-11-17T13:43:50.679Z,20.40
2022-11-17T13:48:48.216Z,23.98
2022-11-17T13:51:35.135Z,37.05
2022-11-17T13:54:07.665Z,21.30
2022-11-17T13:56:40.466Z,24.23
2022-11-17T13:59:24.290Z,23.08
2022-11-17T14:02:26.961Z,21.55
2022-11-17T14:05:24.259Z,25.67
2022-11-17T14:07:54.287Z,18.95
2022-11-17T14:10:32.133Z,24.23
2022-11-17T14:13:30.059Z,21.45
2022-11-17T14:16:01.406Z,16.17
2022-11-17T14:18:32.305Z,18.08
2022-11-17T14:21:13.791Z,18.73
2022-11-17T14:26:29.096Z,18.55
2022-11-17T14:29:02.258Z,16.00
2022-11-17T14:31:33.490Z,14.77
2022-11-17T14:34:01.824Z,15.93
2022-11-17T14:36:30.695Z,14.05
2022-11-17T14:38:59.508Z,13.52
2022-11-17T14:41:27.808Z,15.85
2022-11-17T14:43:56.006Z,10.85
2022-11-17T14:46:26.059Z,13.80
2022-11-17T14:48:56.627Z,12.27
2022-11-17T14:51:25.798Z,14.18
2022-11-17T14:53:54.329Z,11.75
2022-11-17T14:56:24.215Z,13.10
2022-11-17T14:58:56.038Z,15.02
2022-11-17T15:01:28.503Z,12.43
2022-11-17T15:04:00.301Z,13.05
2022-11-17T15:06:30.625Z,9.82
2022-11-17T15:09:00.632Z,11.38
2022-11-17T15:11:35.167Z,13.93
2022-11-17T15:14:07.467Z,16.40
2022-11-17T15:16:35.972Z,11.55
2022-11-17T15:19:06.938Z,14.13
2022-11-17T15:21:35.126Z,10.43
2022-11-17T15:24:04.235Z,12.10
2022-11-17T15:26:32.628Z,10.88
2022-11-17T15:29:01.240Z,13.90
2022-11-17T15:31:29.931Z,16.92
2022-11-17T15:33:58.216Z,16.92
2022-11-17T15:36:27.751Z,11.70
2022-11-17T15:38:55.998Z,10.50
2022-11-17T15:41:26.348Z,12.35
2022-11-17T15:43:56.888Z,9.73
2022-11-17T15:46:25.135Z,23.88
2022-11-17T15:48:53.393Z,12.00
2022-11-17T15:51:23.428Z,15.82
2022-11-17T15:53:55.819Z,14.38
2022-11-17T15:56:25.302Z,15.73
2022-11-17T15:58:57.432Z,11.20
2022-11-17T16:01:30.263Z,14.15
2022-11-17T16:04:00.002Z,13.07
2022-11-17T16:06:28.614Z,15.90
2022-11-17T16:08:58.878Z,15.40
2022-11-17T16:11:27.385Z,15.15
2022-11-17T16:13:56.256Z,20.92
2022-11-17T16:16:25.685Z,13.40
2022-11-17T16:18:53.804Z,17.08
2022-11-17T16:21:22.155Z,17.08
2022-11-17T16:23:51.620Z,16.52
2022-11-17T16:26:22.192Z,13.63
2022-11-17T16:28:50.446Z,16.70
2022-11-17T16:31:20.101Z,20.55
2022-11-17T16:33:49.452Z,19.42
2022-11-17T16:36:17.726Z,16.55
2022-11-17T16:39:02.380Z,23.02
2022-11-17T16:41:33.559Z,17.70
2022-11-17T16:44:02.924Z,16.58
2022-11-17T16:46:32.907Z,16.77
2022-11-17T16:49:03.448Z,14.07
2022-11-17T16:51:31.896Z,21.70
2022-11-17T16:54:01.729Z,17.63
2022-11-17T16:56:31.860Z,15.05
2022-11-17T16:59:00.056Z,20.23
2022-11-17T17:01:30.704Z,14.07
2022-11-17T17:04:00.005Z,18.83
2022-11-17T17:06:28.941Z,18.30
2022-11-17T17:08:58.374Z,21.98
2022-11-17T17:11:27.451Z,20.30
2022-11-17T17:13:57.614Z,22.13
2022-11-17T17:16:26.329Z,26.20
2022-11-17T17:18:59.595Z,19.85
2022-11-17T17:21:28.924Z,21.25
2022-11-17T17:23:57.752Z,19.88
2022-11-17T17:26:27.596Z,22.00
2022-11-17T17:28:58.989Z,29.92
2022-11-17T17:31:30.459Z,24.40
2022-11-17T17:36:28.867Z,29.50
2022-11-17T17:38:58.857Z,20.75
2022-11-17T17:41:29.366Z,21.65
2022-11-17T17:44:00.517Z,21.40
2022-11-17T17:46:31.349Z,25.73
2022-11-17T17:48:59.751Z,22.90
2022-11-17T17:51:29.528Z,28.70
2022-11-17T17:54:01.173Z,28.65
2022-11-17T17:56:30.565Z,33.47
2022-11-17T17:59:00.697Z,27.45
2022-11-17T18:01:30.122Z,30.80
2022-11-17T18:04:04.593Z,27.23
2022-11-17T18:06:37.464Z,27.23
2022-11-17T18:09:06.443Z,29.55
2022-11-17T18:11:35.823Z,27.83
2022-11-17T18:14:05.487Z,31.85
2022-11-17T18:16:35.737Z,31.08
2022-11-17T18:19:05.471Z,33.25
2022-11-17T18:21:34.185Z,33.17
2022-11-17T18:24:03.341Z,36.38
2022-11-17T18:26:33.036Z,33.67
2022-11-17T18:29:03.044Z,30.80
2022-11-17T18:31:35.466Z,25.77
2022-11-17T18:34:06.179Z,31.55
2022-11-17T18:36:34.856Z,25.45
2022-11-17T18:39:03.739Z,31.50
2022-11-17T18:41:34.059Z,27.30
2022-11-17T18:44:02.711Z,30.70
2022-11-17T18:46:33.716Z,35.70
2022-11-17T18:49:02.163Z,35.67
2022-11-17T18:51:31.823Z,34.22
2022-11-17T18:54:02.056Z,36.25
2022-11-17T18:56:33.472Z,26.70
2022-11-17T19:01:30.919Z,27.73
2022-11-17T19:04:01.998Z,30.52
2022-11-17T19:06:30.634Z,31.85
2022-11-17T19:08:59.745Z,31.00
2022-11-17T19:11:33.021Z,29.50
2022-11-17T19:14:03.067Z,34.78
2022-11-17T19:16:32.055Z,26.80
2022-11-17T19:19:01.711Z,29.90
2022-11-17T19:21:31.848Z,31.92
2022-11-17T19:24:04.383Z,26.20
2022-11-17T19:26:33.702Z,35.42
2022-11-17T19:29:03.965Z,26.02
2022-11-17T19:31:32.711Z,32.80
2022-11-17T19:34:02.266Z,28.92
2022-11-17T19:36:32.441Z,29.33
2022-11-17T19:39:02.168Z,31.58
2022-11-17T19:41:32.253Z,33.10
2022-11-17T19:44:03.978Z,30.42
2022-11-17T19:46:33.453Z,27.45
2022-11-17T19:49:03.701Z,31.58
2022-11-17T19:51:33.742Z,29.83
2022-11-17T19:54:04.278Z,32.75
2022-11-17T19:56:33.344Z,26.10
2022-11-17T19:59:01.618Z,32.67
2022-11-17T20:01:30.801Z,38.38
2022-11-17T20:04:00.275Z,30.58
2022-11-17T20:06:35.487Z,33.63
2022-11-17T20:09:08.276Z,28.67
2022-11-17T20:11:36.895Z,28.35
2022-11-17T20:14:05.448Z,29.48
2022-11-17T20:16:33.703Z,28.25
2022-11-17T20:19:03.237Z,30.80
2022-11-17T20:21:33.773Z,28.45
2022-11-17T20:24:02.438Z,32.43
2022-11-17T20:26:32.152Z,31.80
2022-11-17T20:29:01.084Z,28.65
2022-11-17T20:31:30.798Z,28.33
2022-11-17T20:34:00.882Z,28.70
2022-11-17T20:36:30.937Z,28.35
2022-11-17T20:39:02.380Z,24.73
2022-11-17T20:41:31.393Z,22.77
2022-11-17T20:44:01.865Z,23.73
2022-11-17T20:46:30.555Z,25.07
2022-11-17T20:48:58.742Z,28.70
2022-11-17T20:51:27.220Z,28.15
2022-11-17T20:53:55.479Z,26.92
2022-11-17T20:56:25.144Z,26.73
2022-11-17T20:58:53.411Z,25.83
2022-11-17T21:01:24.064Z,25.33
2022-11-17T21:03:52.634Z,26.27
2022-11-17T21:06:23.210Z,22.73
2022-11-17T21:08:52.029Z,19.87
2022-11-17T21:11:39.391Z,24.33
2022-11-17T21:14:11.193Z,24.27
2022-11-17T21:16:41.025Z,28.55
2022-11-17T21:19:09.642Z,26.08
2022-11-17T21:21:37.742Z,24.42
2022-11-17T21:24:06.539Z,26.13
2022-11-17T21:26:35.090Z,29.23
2022-11-17T21:29:06.630Z,25.38
2022-11-17T21:31:36.752Z,26.35
2022-11-17T21:34:06.894Z,29.33
2022-11-17T21:36:36.689Z,26.92
2022-11-17T21:39:05.876Z,26.55
2022-11-17T21:41:36.350Z,23.40
2022-11-17T21:44:04.949Z,24.02
2022-11-17T21:46:35.086Z,28.30
2022-11-17T21:49:04.985Z,25.80
2022-11-17T21:51:34.582Z,27.65
2022-11-17T21:54:04.553Z,25.75
2022-11-17T21:56:32.826Z,26.90
2022-11-17T21:59:02.726Z,25.15
2022-11-17T22:01:31.457Z,27.23
2022-11-17T22:03:59.767Z,24.25
2022-11-17T22:06:29.702Z,24.58
2022-11-17T22:08:59.384Z,27.83
2022-11-17T22:11:38.992Z,26.17
2022-11-17T22:14:10.553Z,28.05
2022-11-17T22:16:40.418Z,31.42
2022-11-17T22:19:09.343Z,28.08
2022-11-17T22:21:40.107Z,31.60
2022-11-17T22:24:10.501Z,27.15
2022-11-17T22:26:41.018Z,26.35
2022-11-17T22:29:13.120Z,31.67
2022-11-17T22:31:41.253Z,28.45
2022-11-17T22:34:09.517Z,27.30
2022-11-17T22:36:39.201Z,31.92
2022-11-17T22:39:07.577Z,29.70
2022-11-17T22:41:35.726Z,33.30
2022-11-17T22:44:04.083Z,29.27
2022-11-17T22:46:32.238Z,30.02
2022-11-17T22:49:00.401Z,28.33
2022-11-17T22:51:45.562Z,31.35
2022-11-17T22:54:15.188Z,30.83
2022-11-17T22:56:43.587Z,31.35
2022-11-17T22:59:11.768Z,31.85
2022-11-17T23:01:40.018Z,32.47
2022-11-17T23:04:08.308Z,37.60
2022-11-17T23:06:36.536Z,28.95
2022-11-17T23:09:04.784Z,32.33
2022-11-17T23:11:38.296Z,33.80
2022-11-17T23:14:07.676Z,32.50
2022-11-17T23:16:36.085Z,27.17
2022-11-17T23:19:05.583Z,31.42
2022-11-17T23:21:33.798Z,28.35
2022-11-17T23:24:02.063Z,28.05
2022-11-17T23:26:30.267Z,28.35
2022-11-17T23:28:59.969Z,26.08
2022-11-17T23:31:28.615Z,28.40
2022-11-17T23:33:56.970Z,25.52
2022-11-17T23:36:25.744Z,17.70
2022-11-17T23:38:56.341Z,24.98
2022-11-17T23:41:24.565Z,23.50
2022-11-17T23:43:54.252Z,22.17
2022-11-17T23:46:25.368Z,25.38
2022-11-17T23:48:54.135Z,19.83
2022-11-17T23:51:23.979Z,18.38
2022-11-17T23:53:52.422Z,25.85
2022-11-17T23:56:21.227Z,20.17
2022-11-17T23:58:49.883Z,18.45
